PAEN/ENA METAR and TAF weather

Enter ICAO airport designator
Station Type Date Time Source
PAEN METAR 2022/05/24 11:04 UTC NOAA

PAEN 241104Z AUTO 21012KT 10SM FEW008 06/04 A2996 RMK AO2 T00560044 TSNO


Station Type Date Time Source
PAEN Decoded METAR 2022/05/24 11:04 UTC NOAA

KENAI MUNICIPAL AIRPORT, AK, United States (PAEN) 60-35N 151-14W 25M
May 24, 2022 - 07:04 AM EDT / 2022.05.24 1104 UTC
Wind: from the SSW (210 degrees) at 14 MPH (12 KT):0
Visibility: 10 mile(s):0
Sky conditions: mostly clear
Temperature: 42.1 F (5.6 C)
Dew Point: 39.9 F (4.4 C)
Relative Humidity: 91%
Pressure (altimeter): 29.96 in. Hg (1014 hPa)
ob: PAEN 241104Z AUTO 21012KT 10SM FEW008 06/04 A2996 RMK AO2 T00560044 TSNO
cycle: 11

Station Type Date Time Source
PAEN TAF 2022/05/24 12:34 UTC NOAA

TAF PAEN 241132Z 2412/2512 21012KT P6SM SKC
FM241400 20010KT P6SM BKN050

Example: see airport list